sensor_id;sensor_type;location;lat;lon;timestamp;P1;durP1;ratioP1;P2;durP2;ratioP2
2474;SDS011;1248;48.694;10.160;2023-05-07T00:00:59;4.23;;;3.83;;
2474;SDS011;1248;48.694;10.160;2023-05-07T00:03:26;6.20;;;4.47;;
2474;SDS011;1248;48.694;10.160;2023-05-07T00:05:55;4.90;;;4.43;;
2474;SDS011;1248;48.694;10.160;2023-05-07T00:08:22;8.77;;;4.60;;
2474;SDS011;1248;48.694;10.160;2023-05-07T00:10:49;5.10;;;4.60;;
2474;SDS011;1248;48.694;10.160;2023-05-07T00:13:16;4.73;;;4.27;;
2474;SDS011;1248;48.694;10.160;2023-05-07T00:15:43;4.80;;;4.20;;
2474;SDS011;1248;48.694;10.160;2023-05-07T00:18:10;6.17;;;5.30;;
2474;SDS011;1248;48.694;10.160;2023-05-07T00:20:37;6.00;;;3.73;;
2474;SDS011;1248;48.694;10.160;2023-05-07T00:23:06;6.73;;;4.50;;
2474;SDS011;1248;48.694;10.160;2023-05-07T00:25:33;6.53;;;4.67;;
2474;SDS011;1248;48.694;10.160;2023-05-07T00:28:00;5.10;;;4.37;;
2474;SDS011;1248;48.694;10.160;2023-05-07T00:30:29;6.47;;;3.83;;
2474;SDS011;1248;48.694;10.160;2023-05-07T00:32:56;7.47;;;5.40;;
2474;SDS011;1248;48.694;10.160;2023-05-07T00:35:23;9.33;;;5.30;;
2474;SDS011;1248;48.694;10.160;2023-05-07T00:37:50;8.00;;;4.57;;
2474;SDS011;1248;48.694;10.160;2023-05-07T00:40:18;8.10;;;4.83;;
2474;SDS011;1248;48.694;10.160;2023-05-07T00:42:45;7.00;;;5.07;;
2474;SDS011;1248;48.694;10.160;2023-05-07T00:45:14;6.97;;;4.87;;
2474;SDS011;1248;48.694;10.160;2023-05-07T00:47:42;4.53;;;3.30;;
2474;SDS011;1248;48.694;10.160;2023-05-07T00:50:09;4.30;;;3.90;;
2474;SDS011;1248;48.694;10.160;2023-05-07T00:52:38;4.60;;;3.33;;
2474;SDS011;1248;48.694;10.160;2023-05-07T00:55:07;5.17;;;3.37;;
2474;SDS011;1248;48.694;10.160;2023-05-07T00:57:36;3.80;;;2.77;;
2474;SDS011;1248;48.694;10.160;2023-05-07T01:00:04;3.87;;;3.37;;
2474;SDS011;1248;48.694;10.160;2023-05-07T01:02:34;3.77;;;3.40;;
2474;SDS011;1248;48.694;10.160;2023-05-07T01:05:01;4.60;;;3.43;;
2474;SDS011;1248;48.694;10.160;2023-05-07T01:07:30;6.20;;;3.20;;
2474;SDS011;1248;48.694;10.160;2023-05-07T01:09:57;3.90;;;3.60;;
2474;SDS011;1248;48.694;10.160;2023-05-07T01:12:24;5.07;;;3.53;;
2474;SDS011;1248;48.694;10.160;2023-05-07T01:14:53;3.50;;;3.20;;
2474;SDS011;1248;48.694;10.160;2023-05-07T01:17:20;3.73;;;3.37;;
2474;SDS011;1248;48.694;10.160;2023-05-07T01:19:47;3.43;;;3.10;;
2474;SDS011;1248;48.694;10.160;2023-05-07T01:22:14;3.43;;;3.13;;
2474;SDS011;1248;48.694;10.160;2023-05-07T01:24:44;5.00;;;3.50;;
2474;SDS011;1248;48.694;10.160;2023-05-07T01:27:11;3.93;;;3.47;;
2474;SDS011;1248;48.694;10.160;2023-05-07T01:29:38;4.90;;;3.83;;
2474;SDS011;1248;48.694;10.160;2023-05-07T01:32:06;5.07;;;3.70;;
2474;SDS011;1248;48.694;10.160;2023-05-07T01:34:34;4.20;;;3.73;;
2474;SDS011;1248;48.694;10.160;2023-05-07T01:37:01;4.53;;;3.67;;
2474;SDS011;1248;48.694;10.160;2023-05-07T01:39:28;3.50;;;2.90;;
2474;SDS011;1248;48.694;10.160;2023-05-07T01:41:57;3.43;;;3.00;;
2474;SDS011;1248;48.694;10.160;2023-05-07T01:44:26;3.60;;;3.30;;
2474;SDS011;1248;48.694;10.160;2023-05-07T01:46:53;3.57;;;3.27;;
2474;SDS011;1248;48.694;10.160;2023-05-07T01:49:20;3.80;;;3.47;;
2474;SDS011;1248;48.694;10.160;2023-05-07T01:51:48;3.57;;;2.93;;
2474;SDS011;1248;48.694;10.160;2023-05-07T01:54:15;4.10;;;3.13;;
2474;SDS011;1248;48.694;10.160;2023-05-07T01:56:43;6.37;;;3.57;;
2474;SDS011;1248;48.694;10.160;2023-05-07T01:59:11;3.50;;;3.20;;
2474;SDS011;1248;48.694;10.160;2023-05-07T02:01:39;3.73;;;3.30;;
2474;SDS011;1248;48.694;10.160;2023-05-07T02:04:06;3.87;;;3.47;;
2474;SDS011;1248;48.694;10.160;2023-05-07T02:06:33;4.40;;;3.47;;
2474;SDS011;1248;48.694;10.160;2023-05-07T02:09:00;5.90;;;3.67;;
2474;SDS011;1248;48.694;10.160;2023-05-07T02:11:27;3.50;;;3.20;;
2474;SDS011;1248;48.694;10.160;2023-05-07T02:13:54;13.10;;;3.70;;
2474;SDS011;1248;48.694;10.160;2023-05-07T02:16:22;3.43;;;3.13;;
2474;SDS011;1248;48.694;10.160;2023-05-07T02:18:49;3.00;;;2.80;;
2474;SDS011;1248;48.694;10.160;2023-05-07T02:21:16;3.20;;;2.90;;
2474;SDS011;1248;48.694;10.160;2023-05-07T02:23:43;7.13;;;3.80;;
2474;SDS011;1248;48.694;10.160;2023-05-07T02:26:11;3.87;;;3.40;;
2474;SDS011;1248;48.694;10.160;2023-05-07T02:28:38;4.40;;;3.30;;
2474;SDS011;1248;48.694;10.160;2023-05-07T02:31:05;4.80;;;3.37;;
2474;SDS011;1248;48.694;10.160;2023-05-07T02:33:33;4.67;;;2.77;;
2474;SDS011;1248;48.694;10.160;2023-05-07T02:36:05;4.20;;;3.80;;
2474;SDS011;1248;48.694;10.160;2023-05-07T02:38:33;3.67;;;3.00;;
2474;SDS011;1248;48.694;10.160;2023-05-07T02:41:00;3.83;;;2.97;;
2474;SDS011;1248;48.694;10.160;2023-05-07T02:43:27;3.07;;;2.87;;
2474;SDS011;1248;48.694;10.160;2023-05-07T02:46:01;3.77;;;3.47;;
2474;SDS011;1248;48.694;10.160;2023-05-07T02:48:29;7.43;;;3.70;;
2474;SDS011;1248;48.694;10.160;2023-05-07T02:50:57;3.63;;;3.27;;
2474;SDS011;1248;48.694;10.160;2023-05-07T02:53:24;3.60;;;3.30;;
2474;SDS011;1248;48.694;10.160;2023-05-07T02:55:52;4.00;;;3.60;;
2474;SDS011;1248;48.694;10.160;2023-05-07T02:58:19;4.40;;;3.30;;
2474;SDS011;1248;48.694;10.160;2023-05-07T03:00:46;3.37;;;3.07;;
2474;SDS011;1248;48.694;10.160;2023-05-07T03:03:13;4.17;;;2.93;;
2474;SDS011;1248;48.694;10.160;2023-05-07T03:05:40;3.30;;;2.83;;
2474;SDS011;1248;48.694;10.160;2023-05-07T03:08:09;3.67;;;3.10;;
2474;SDS011;1248;48.694;10.160;2023-05-07T03:10:36;4.00;;;3.17;;
2474;SDS011;1248;48.694;10.160;2023-05-07T03:13:04;3.30;;;2.93;;
2474;SDS011;1248;48.694;10.160;2023-05-07T03:15:31;5.33;;;3.70;;
2474;SDS011;1248;48.694;10.160;2023-05-07T03:17:58;6.00;;;3.37;;
2474;SDS011;1248;48.694;10.160;2023-05-07T03:20:25;6.50;;;3.57;;
2474;SDS011;1248;48.694;10.160;2023-05-07T03:22:52;5.53;;;3.50;;
2474;SDS011;1248;48.694;10.160;2023-05-07T03:25:21;6.20;;;3.63;;
2474;SDS011;1248;48.694;10.160;2023-05-07T03:27:48;5.27;;;3.67;;
2474;SDS011;1248;48.694;10.160;2023-05-07T03:30:15;4.63;;;3.37;;
2474;SDS011;1248;48.694;10.160;2023-05-07T03:32:42;4.90;;;3.80;;
2474;SDS011;1248;48.694;10.160;2023-05-07T03:35:09;4.27;;;3.87;;
2474;SDS011;1248;48.694;10.160;2023-05-07T03:37:37;3.67;;;3.00;;
2474;SDS011;1248;48.694;10.160;2023-05-07T03:40:04;4.43;;;3.43;;
2474;SDS011;1248;48.694;10.160;2023-05-07T03:42:34;3.97;;;3.57;;
2474;SDS011;1248;48.694;10.160;2023-05-07T03:45:01;4.33;;;3.20;;
2474;SDS011;1248;48.694;10.160;2023-05-07T03:47:29;3.50;;;3.20;;
2474;SDS011;1248;48.694;10.160;2023-05-07T03:49:56;8.70;;;3.53;;
2474;SDS011;1248;48.694;10.160;2023-05-07T03:52:23;5.70;;;3.30;;
2474;SDS011;1248;48.694;10.160;2023-05-07T03:54:51;4.90;;;4.20;;
2474;SDS011;1248;48.694;10.160;2023-05-07T03:57:19;6.57;;;3.50;;
2474;SDS011;1248;48.694;10.160;2023-05-07T03:59:47;4.43;;;3.40;;
2474;SDS011;1248;48.694;10.160;2023-05-07T04:02:14;5.40;;;3.40;;
2474;SDS011;1248;48.694;10.160;2023-05-07T04:04:41;5.27;;;3.50;;
2474;SDS011;1248;48.694;10.160;2023-05-07T04:07:08;4.47;;;3.63;;
2474;SDS011;1248;48.694;10.160;2023-05-07T04:09:35;5.70;;;5.20;;
2474;SDS011;1248;48.694;10.160;2023-05-07T04:12:02;3.60;;;3.30;;
2474;SDS011;1248;48.694;10.160;2023-05-07T04:14:30;4.23;;;3.20;;
2474;SDS011;1248;48.694;10.160;2023-05-07T04:16:59;5.47;;;4.40;;
2474;SDS011;1248;48.694;10.160;2023-05-07T04:19:26;5.87;;;3.60;;
2474;SDS011;1248;48.694;10.160;2023-05-07T04:21:53;7.40;;;4.10;;
2474;SDS011;1248;48.694;10.160;2023-05-07T04:24:20;3.73;;;3.30;;
2474;SDS011;1248;48.694;10.160;2023-05-07T04:26:47;4.13;;;3.60;;
2474;SDS011;1248;48.694;10.160;2023-05-07T04:29:16;3.93;;;3.63;;
2474;SDS011;1248;48.694;10.160;2023-05-07T04:31:43;5.97;;;3.73;;
2474;SDS011;1248;48.694;10.160;2023-05-07T04:34:12;3.37;;;3.07;;
2474;SDS011;1248;48.694;10.160;2023-05-07T04:36:39;5.20;;;4.00;;
2474;SDS011;1248;48.694;10.160;2023-05-07T04:39:07;5.13;;;3.63;;
2474;SDS011;1248;48.694;10.160;2023-05-07T04:41:35;4.50;;;3.40;;
2474;SDS011;1248;48.694;10.160;2023-05-07T04:44:02;4.40;;;3.37;;
2474;SDS011;1248;48.694;10.160;2023-05-07T04:46:32;4.80;;;4.30;;
2474;SDS011;1248;48.694;10.160;2023-05-07T04:48:59;3.83;;;3.50;;
2474;SDS011;1248;48.694;10.160;2023-05-07T04:51:27;7.10;;;4.07;;
2474;SDS011;1248;48.694;10.160;2023-05-07T04:53:54;34.60;;;5.20;;
2474;SDS011;1248;48.694;10.160;2023-05-07T04:56:21;4.60;;;3.77;;
2474;SDS011;1248;48.694;10.160;2023-05-07T04:58:48;3.60;;;3.30;;
2474;SDS011;1248;48.694;10.160;2023-05-07T05:01:15;4.10;;;3.77;;
2474;SDS011;1248;48.694;10.160;2023-05-07T05:03:42;3.97;;;2.87;;
2474;SDS011;1248;48.694;10.160;2023-05-07T05:06:09;3.80;;;3.40;;
2474;SDS011;1248;48.694;10.160;2023-05-07T05:08:38;5.77;;;3.57;;
2474;SDS011;1248;48.694;10.160;2023-05-07T05:11:05;4.70;;;4.30;;
2474;SDS011;1248;48.694;10.160;2023-05-07T05:13:32;4.00;;;3.60;;
2474;SDS011;1248;48.694;10.160;2023-05-07T05:15:59;3.40;;;3.10;;
2474;SDS011;1248;48.694;10.160;2023-05-07T05:18:26;3.90;;;3.57;;
2474;SDS011;1248;48.694;10.160;2023-05-07T05:20:53;4.00;;;3.60;;
2474;SDS011;1248;48.694;10.160;2023-05-07T05:23:20;4.80;;;4.07;;
2474;SDS011;1248;48.694;10.160;2023-05-07T05:25:48;8.30;;;4.70;;
2474;SDS011;1248;48.694;10.160;2023-05-07T05:28:15;3.80;;;3.50;;
2474;SDS011;1248;48.694;10.160;2023-05-07T05:30:42;4.30;;;3.77;;
2474;SDS011;1248;48.694;10.160;2023-05-07T05:33:09;5.67;;;3.27;;
2474;SDS011;1248;48.694;10.160;2023-05-07T05:35:36;4.90;;;3.60;;
2474;SDS011;1248;48.694;10.160;2023-05-07T05:38:03;6.07;;;4.03;;
2474;SDS011;1248;48.694;10.160;2023-05-07T05:40:30;5.50;;;4.17;;
2474;SDS011;1248;48.694;10.160;2023-05-07T05:43:00;4.23;;;3.83;;
2474;SDS011;1248;48.694;10.160;2023-05-07T05:45:27;6.03;;;4.40;;
2474;SDS011;1248;48.694;10.160;2023-05-07T05:47:55;6.13;;;4.57;;
2474;SDS011;1248;48.694;10.160;2023-05-07T05:50:22;4.53;;;3.80;;
2474;SDS011;1248;48.694;10.160;2023-05-07T05:52:50;7.67;;;4.10;;
2474;SDS011;1248;48.694;10.160;2023-05-07T05:55:17;12.20;;;4.47;;
2474;SDS011;1248;48.694;10.160;2023-05-07T05:57:44;5.07;;;4.57;;
2474;SDS011;1248;48.694;10.160;2023-05-07T06:00:13;7.73;;;4.97;;
2474;SDS011;1248;48.694;10.160;2023-05-07T06:02:41;4.47;;;4.17;;
2474;SDS011;1248;48.694;10.160;2023-05-07T06:05:09;4.93;;;4.53;;
2474;SDS011;1248;48.694;10.160;2023-05-07T06:07:36;5.60;;;4.10;;
2474;SDS011;1248;48.694;10.160;2023-05-07T06:10:03;6.57;;;4.10;;
2474;SDS011;1248;48.694;10.160;2023-05-07T06:12:31;4.50;;;3.67;;
2474;SDS011;1248;48.694;10.160;2023-05-07T06:14:58;5.90;;;4.90;;
2474;SDS011;1248;48.694;10.160;2023-05-07T06:17:26;4.67;;;3.80;;
2474;SDS011;1248;48.694;10.160;2023-05-07T06:19:53;4.93;;;4.20;;
2474;SDS011;1248;48.694;10.160;2023-05-07T06:22:20;6.30;;;3.93;;
2474;SDS011;1248;48.694;10.160;2023-05-07T06:24:48;4.53;;;4.13;;
2474;SDS011;1248;48.694;10.160;2023-05-07T06:27:15;4.27;;;3.70;;
2474;SDS011;1248;48.694;10.160;2023-05-07T06:29:42;4.80;;;4.07;;
2474;SDS011;1248;48.694;10.160;2023-05-07T06:32:09;4.60;;;4.20;;
2474;SDS011;1248;48.694;10.160;2023-05-07T06:34:38;3.80;;;3.40;;
2474;SDS011;1248;48.694;10.160;2023-05-07T06:37:06;5.27;;;3.70;;
2474;SDS011;1248;48.694;10.160;2023-05-07T06:39:33;3.83;;;3.53;;
2474;SDS011;1248;48.694;10.160;2023-05-07T06:42:00;4.30;;;3.97;;
2474;SDS011;1248;48.694;10.160;2023-05-07T06:44:27;6.70;;;4.90;;
2474;SDS011;1248;48.694;10.160;2023-05-07T06:46:54;7.00;;;4.00;;
2474;SDS011;1248;48.694;10.160;2023-05-07T06:49:21;7.50;;;4.33;;
2474;SDS011;1248;48.694;10.160;2023-05-07T06:51:49;4.40;;;4.03;;
2474;SDS011;1248;48.694;10.160;2023-05-07T06:54:16;5.10;;;4.20;;
2474;SDS011;1248;48.694;10.160;2023-05-07T06:56:43;5.57;;;4.73;;
2474;SDS011;1248;48.694;10.160;2023-05-07T06:59:10;4.80;;;4.00;;
2474;SDS011;1248;48.694;10.160;2023-05-07T07:01:37;4.50;;;3.93;;
2474;SDS011;1248;48.694;10.160;2023-05-07T07:04:04;7.20;;;4.67;;
2474;SDS011;1248;48.694;10.160;2023-05-07T07:06:31;4.83;;;3.60;;
2474;SDS011;1248;48.694;10.160;2023-05-07T07:09:00;6.63;;;3.30;;
2474;SDS011;1248;48.694;10.160;2023-05-07T07:11:27;7.53;;;4.30;;
2474;SDS011;1248;48.694;10.160;2023-05-07T07:13:54;7.53;;;4.00;;
2474;SDS011;1248;48.694;10.160;2023-05-07T07:16:21;5.20;;;3.87;;
2474;SDS011;1248;48.694;10.160;2023-05-07T07:18:48;4.10;;;3.70;;
2474;SDS011;1248;48.694;10.160;2023-05-07T07:21:15;8.03;;;3.47;;
2474;SDS011;1248;48.694;10.160;2023-05-07T07:23:42;3.27;;;2.97;;
2474;SDS011;1248;48.694;10.160;2023-05-07T07:26:11;3.00;;;2.70;;
2474;SDS011;1248;48.694;10.160;2023-05-07T07:28:42;7.43;;;4.20;;
2474;SDS011;1248;48.694;10.160;2023-05-07T07:31:09;3.90;;;3.50;;
2474;SDS011;1248;48.694;10.160;2023-05-07T07:33:36;5.87;;;3.17;;
2474;SDS011;1248;48.694;10.160;2023-05-07T07:36:04;3.53;;;2.30;;
2474;SDS011;1248;48.694;10.160;2023-05-07T07:38:32;4.23;;;3.17;;
2474;SDS011;1248;48.694;10.160;2023-05-07T07:40:59;3.70;;;2.30;;
2474;SDS011;1248;48.694;10.160;2023-05-07T07:43:27;3.93;;;3.10;;
2474;SDS011;1248;48.694;10.160;2023-05-07T07:45:54;5.77;;;2.93;;
2474;SDS011;1248;48.694;10.160;2023-05-07T07:48:21;5.00;;;3.50;;
2474;SDS011;1248;48.694;10.160;2023-05-07T07:50:49;6.43;;;2.90;;
2474;SDS011;1248;48.694;10.160;2023-05-07T07:53:16;2.77;;;2.50;;
2474;SDS011;1248;48.694;10.160;2023-05-07T07:55:44;3.23;;;2.80;;
2474;SDS011;1248;48.694;10.160;2023-05-07T07:58:11;2.60;;;2.40;;
2474;SDS011;1248;48.694;10.160;2023-05-07T08:00:39;5.20;;;2.83;;
2474;SDS011;1248;48.694;10.160;2023-05-07T08:03:08;4.43;;;2.20;;
2474;SDS011;1248;48.694;10.160;2023-05-07T08:05:36;3.70;;;2.30;;
2474;SDS011;1248;48.694;10.160;2023-05-07T08:08:04;2.93;;;2.60;;
2474;SDS011;1248;48.694;10.160;2023-05-07T08:10:31;2.30;;;2.10;;
2474;SDS011;1248;48.694;10.160;2023-05-07T08:13:00;3.27;;;2.10;;
2474;SDS011;1248;48.694;10.160;2023-05-07T08:15:27;4.10;;;1.90;;
2474;SDS011;1248;48.694;10.160;2023-05-07T08:17:55;2.47;;;1.80;;
2474;SDS011;1248;48.694;10.160;2023-05-07T08:20:23;10.00;;;2.00;;
2474;SDS011;1248;48.694;10.160;2023-05-07T08:22:51;2.90;;;2.10;;
2474;SDS011;1248;48.694;10.160;2023-05-07T08:25:18;3.03;;;2.17;;
2474;SDS011;1248;48.694;10.160;2023-05-07T08:27:45;2.80;;;1.93;;
2474;SDS011;1248;48.694;10.160;2023-05-07T08:30:12;1.93;;;1.47;;
2474;SDS011;1248;48.694;10.160;2023-05-07T08:32:40;2.03;;;1.70;;
2474;SDS011;1248;48.694;10.160;2023-05-07T08:35:09;3.50;;;1.60;;
2474;SDS011;1248;48.694;10.160;2023-05-07T08:37:36;2.33;;;1.60;;
2474;SDS011;1248;48.694;10.160;2023-05-07T08:40:03;3.50;;;2.40;;
2474;SDS011;1248;48.694;10.160;2023-05-07T08:42:31;3.70;;;2.63;;
2474;SDS011;1248;48.694;10.160;2023-05-07T08:45:02;2.70;;;1.93;;
2474;SDS011;1248;48.694;10.160;2023-05-07T08:47:34;2.07;;;1.87;;
2474;SDS011;1248;48.694;10.160;2023-05-07T08:50:02;6.90;;;2.07;;
2474;SDS011;1248;48.694;10.160;2023-05-07T08:52:31;2.40;;;2.20;;
2474;SDS011;1248;48.694;10.160;2023-05-07T08:54:58;2.57;;;1.43;;
2474;SDS011;1248;48.694;10.160;2023-05-07T08:57:25;3.03;;;1.70;;
2474;SDS011;1248;48.694;10.160;2023-05-07T08:59:52;1.97;;;1.70;;
2474;SDS011;1248;48.694;10.160;2023-05-07T09:02:20;3.40;;;2.53;;
2474;SDS011;1248;48.694;10.160;2023-05-07T09:04:47;2.40;;;2.20;;
2474;SDS011;1248;48.694;10.160;2023-05-07T09:07:14;3.50;;;2.20;;
2474;SDS011;1248;48.694;10.160;2023-05-07T09:09:42;7.67;;;2.57;;
2474;SDS011;1248;48.694;10.160;2023-05-07T09:12:10;2.73;;;2.40;;
2474;SDS011;1248;48.694;10.160;2023-05-07T09:14:37;3.80;;;2.50;;
2474;SDS011;1248;48.694;10.160;2023-05-07T09:17:04;3.60;;;2.17;;
2474;SDS011;1248;48.694;10.160;2023-05-07T09:19:31;3.23;;;2.93;;
2474;SDS011;1248;48.694;10.160;2023-05-07T09:21:58;3.13;;;2.27;;
2474;SDS011;1248;48.694;10.160;2023-05-07T09:24:26;3.90;;;2.50;;
2474;SDS011;1248;48.694;10.160;2023-05-07T09:26:58;3.70;;;2.73;;
2474;SDS011;1248;48.694;10.160;2023-05-07T09:29:25;7.53;;;3.03;;
2474;SDS011;1248;48.694;10.160;2023-05-07T09:31:54;3.90;;;3.10;;
2474;SDS011;1248;48.694;10.160;2023-05-07T09:34:21;7.00;;;2.10;;
2474;SDS011;1248;48.694;10.160;2023-05-07T09:36:48;4.70;;;2.10;;
2474;SDS011;1248;48.694;10.160;2023-05-07T09:39:16;3.30;;;2.37;;
2474;SDS011;1248;48.694;10.160;2023-05-07T09:41:43;6.40;;;2.60;;
2474;SDS011;1248;48.694;10.160;2023-05-07T09:44:12;3.17;;;2.08;;
2474;SDS011;1248;48.694;10.160;2023-05-07T09:46:41;2.97;;;1.93;;
2474;SDS011;1248;48.694;10.160;2023-05-07T09:49:11;4.47;;;1.83;;
2474;SDS011;1248;48.694;10.160;2023-05-07T09:51:43;1.63;;;1.40;;
2474;SDS011;1248;48.694;10.160;2023-05-07T09:54:14;1.90;;;1.40;;
2474;SDS011;1248;48.694;10.160;2023-05-07T09:56:42;4.67;;;1.60;;
2474;SDS011;1248;48.694;10.160;2023-05-07T09:59:10;2.93;;;1.40;;
2474;SDS011;1248;48.694;10.160;2023-05-07T10:01:38;3.00;;;1.67;;
2474;SDS011;1248;48.694;10.160;2023-05-07T10:04:07;1.97;;;1.77;;
2474;SDS011;1248;48.694;10.160;2023-05-07T10:06:34;2.57;;;1.83;;
2474;SDS011;1248;48.694;10.160;2023-05-07T10:09:03;3.10;;;1.83;;
2474;SDS011;1248;48.694;10.160;2023-05-07T10:11:32;2.10;;;1.90;;
2474;SDS011;1248;48.694;10.160;2023-05-07T10:14:01;3.33;;;1.50;;
2474;SDS011;1248;48.694;10.160;2023-05-07T10:16:28;2.43;;;1.80;;
2474;SDS011;1248;48.694;10.160;2023-05-07T10:18:59;2.03;;;1.80;;
2474;SDS011;1248;48.694;10.160;2023-05-07T10:21:26;4.53;;;1.70;;
2474;SDS011;1248;48.694;10.160;2023-05-07T10:23:56;2.57;;;1.63;;
2474;SDS011;1248;48.694;10.160;2023-05-07T10:26:25;1.83;;;1.40;;
2474;SDS011;1248;48.694;10.160;2023-05-07T10:28:54;2.17;;;1.47;;
2474;SDS011;1248;48.694;10.160;2023-05-07T10:31:33;3.38;;;1.55;;
2474;SDS011;1248;48.694;10.160;2023-05-07T10:34:08;3.10;;;1.50;;
2474;SDS011;1248;48.694;10.160;2023-05-07T10:36:37;3.07;;;1.67;;
2474;SDS011;1248;48.694;10.160;2023-05-07T10:39:05;3.57;;;1.80;;
2474;SDS011;1248;48.694;10.160;2023-05-07T10:41:33;2.80;;;1.70;;
2474;SDS011;1248;48.694;10.160;2023-05-07T10:44:00;3.70;;;1.83;;
2474;SDS011;1248;48.694;10.160;2023-05-07T10:46:27;2.40;;;1.63;;
2474;SDS011;1248;48.694;10.160;2023-05-07T10:49:11;2.07;;;1.60;;
2474;SDS011;1248;48.694;10.160;2023-05-07T10:51:38;3.33;;;1.60;;
2474;SDS011;1248;48.694;10.160;2023-05-07T10:54:21;3.20;;;1.87;;
2474;SDS011;1248;48.694;10.160;2023-05-07T10:56:49;2.60;;;1.60;;
2474;SDS011;1248;48.694;10.160;2023-05-07T10:59:33;2.23;;;1.77;;
2474;SDS011;1248;48.694;10.160;2023-05-07T11:02:06;7.87;;;2.70;;
2474;SDS011;1248;48.694;10.160;2023-05-07T11:04:36;2.57;;;2.03;;
2474;SDS011;1248;48.694;10.160;2023-05-07T11:09:59;4.33;;;2.50;;
2474;SDS011;1248;48.694;10.160;2023-05-07T11:12:46;3.97;;;2.70;;
2474;SDS011;1248;48.694;10.160;2023-05-07T11:18:11;6.47;;;2.10;;
2474;SDS011;1248;48.694;10.160;2023-05-07T11:20:50;2.90;;;2.17;;
2474;SDS011;1248;48.694;10.160;2023-05-07T11:26:24;1.80;;;1.43;;
2474;SDS011;1248;48.694;10.160;2023-05-07T11:28:52;2.20;;;1.57;;
2474;SDS011;1248;48.694;10.160;2023-05-07T11:31:21;2.27;;;1.30;;
2474;SDS011;1248;48.694;10.160;2023-05-07T11:33:50;1.83;;;1.30;;
2474;SDS011;1248;48.694;10.160;2023-05-07T11:36:18;1.87;;;1.40;;
2474;SDS011;1248;48.694;10.160;2023-05-07T11:38:46;1.90;;;1.30;;
2474;SDS011;1248;48.694;10.160;2023-05-07T11:41:13;3.40;;;1.40;;
2474;SDS011;1248;48.694;10.160;2023-05-07T11:43:53;2.53;;;1.73;;
2474;SDS011;1248;48.694;10.160;2023-05-07T11:46:21;2.40;;;1.83;;
2474;SDS011;1248;48.694;10.160;2023-05-07T11:48:48;2.90;;;1.67;;
2474;SDS011;1248;48.694;10.160;2023-05-07T11:51:20;1.67;;;1.43;;
2474;SDS011;1248;48.694;10.160;2023-05-07T11:56:16;2.90;;;1.40;;
2474;SDS011;1248;48.694;10.160;2023-05-07T11:58:45;3.60;;;1.50;;
2474;SDS011;1248;48.694;10.160;2023-05-07T12:01:13;2.07;;;1.90;;
2474;SDS011;1248;48.694;10.160;2023-05-07T12:03:41;1.87;;;1.47;;
2474;SDS011;1248;48.694;10.160;2023-05-07T12:06:09;2.17;;;1.50;;
2474;SDS011;1248;48.694;10.160;2023-05-07T12:08:38;2.60;;;1.63;;
2474;SDS011;1248;48.694;10.160;2023-05-07T12:11:07;3.20;;;2.20;;
2474;SDS011;1248;48.694;10.160;2023-05-07T12:13:35;1.97;;;1.67;;
2474;SDS011;1248;48.694;10.160;2023-05-07T12:16:02;3.20;;;1.80;;
2474;SDS011;1248;48.694;10.160;2023-05-07T12:18:31;2.30;;;1.80;;
2474;SDS011;1248;48.694;10.160;2023-05-07T12:20:58;3.23;;;2.50;;
2474;SDS011;1248;48.694;10.160;2023-05-07T12:23:26;3.30;;;1.50;;
2474;SDS011;1248;48.694;10.160;2023-05-07T12:25:54;4.43;;;1.70;;
2474;SDS011;1248;48.694;10.160;2023-05-07T12:28:21;2.80;;;2.07;;
2474;SDS011;1248;48.694;10.160;2023-05-07T12:30:49;2.77;;;1.97;;
2474;SDS011;1248;48.694;10.160;2023-05-07T12:33:17;2.43;;;1.80;;
2474;SDS011;1248;48.694;10.160;2023-05-07T12:35:46;3.93;;;2.20;;
2474;SDS011;1248;48.694;10.160;2023-05-07T12:38:15;3.63;;;1.83;;
2474;SDS011;1248;48.694;10.160;2023-05-07T12:40:43;2.13;;;1.50;;
2474;SDS011;1248;48.694;10.160;2023-05-07T12:43:17;4.37;;;2.70;;
2474;SDS011;1248;48.694;10.160;2023-05-07T12:45:44;2.93;;;1.80;;
2474;SDS011;1248;48.694;10.160;2023-05-07T12:48:13;2.43;;;1.87;;
2474;SDS011;1248;48.694;10.160;2023-05-07T12:50:40;2.10;;;1.67;;
2474;SDS011;1248;48.694;10.160;2023-05-07T12:53:10;3.40;;;2.73;;
2474;SDS011;1248;48.694;10.160;2023-05-07T12:55:41;3.23;;;2.40;;
2474;SDS011;1248;48.694;10.160;2023-05-07T12:58:14;4.50;;;2.07;;
2474;SDS011;1248;48.694;10.160;2023-05-07T13:00:44;4.63;;;1.93;;
2474;SDS011;1248;48.694;10.160;2023-05-07T13:03:11;1.92;;;1.80;;
2474;SDS011;1248;48.694;10.160;2023-05-07T13:05:38;2.20;;;1.90;;
2474;SDS011;1248;48.694;10.160;2023-05-07T13:08:05;4.10;;;2.50;;
2474;SDS011;1248;48.694;10.160;2023-05-07T13:10:35;3.97;;;2.57;;
2474;SDS011;1248;48.694;10.160;2023-05-07T13:13:02;2.00;;;1.80;;
2474;SDS011;1248;48.694;10.160;2023-05-07T13:15:30;3.40;;;2.40;;
2474;SDS011;1248;48.694;10.160;2023-05-07T13:17:58;2.10;;;1.90;;
2474;SDS011;1248;48.694;10.160;2023-05-07T13:20:25;2.10;;;1.90;;
2474;SDS011;1248;48.694;10.160;2023-05-07T13:22:52;2.63;;;1.73;;
2474;SDS011;1248;48.694;10.160;2023-05-07T13:25:19;2.80;;;2.00;;
2474;SDS011;1248;48.694;10.160;2023-05-07T13:27:46;3.80;;;2.10;;
2474;SDS011;1248;48.694;10.160;2023-05-07T13:30:13;4.33;;;2.10;;
2474;SDS011;1248;48.694;10.160;2023-05-07T13:32:40;2.30;;;1.87;;
2474;SDS011;1248;48.694;10.160;2023-05-07T13:35:09;4.20;;;2.17;;
2474;SDS011;1248;48.694;10.160;2023-05-07T13:37:36;5.97;;;2.03;;
2474;SDS011;1248;48.694;10.160;2023-05-07T13:40:03;4.20;;;1.97;;
2474;SDS011;1248;48.694;10.160;2023-05-07T13:42:32;2.50;;;2.20;;
2474;SDS011;1248;48.694;10.160;2023-05-07T13:44:59;5.53;;;2.33;;
2474;SDS011;1248;48.694;10.160;2023-05-07T13:47:26;3.13;;;2.20;;
2474;SDS011;1248;48.694;10.160;2023-05-07T13:49:53;2.40;;;2.00;;
2474;SDS011;1248;48.694;10.160;2023-05-07T13:52:21;2.43;;;1.90;;
2474;SDS011;1248;48.694;10.160;2023-05-07T13:54:48;3.73;;;2.43;;
2474;SDS011;1248;48.694;10.160;2023-05-07T13:57:17;2.00;;;1.80;;
2474;SDS011;1248;48.694;10.160;2023-05-07T13:59:44;4.47;;;2.37;;
2474;SDS011;1248;48.694;10.160;2023-05-07T14:02:11;2.20;;;1.80;;
2474;SDS011;1248;48.694;10.160;2023-05-07T14:04:38;2.10;;;1.90;;
2474;SDS011;1248;48.694;10.160;2023-05-07T14:07:05;4.87;;;2.20;;
2474;SDS011;1248;48.694;10.160;2023-05-07T14:09:34;2.73;;;2.03;;
2474;SDS011;1248;48.694;10.160;2023-05-07T14:12:01;4.47;;;2.30;;
2474;SDS011;1248;48.694;10.160;2023-05-07T14:14:28;3.10;;;2.60;;
2474;SDS011;1248;48.694;10.160;2023-05-07T14:16:55;4.43;;;2.50;;
2474;SDS011;1248;48.694;10.160;2023-05-07T14:19:22;2.30;;;2.10;;
2474;SDS011;1248;48.694;10.160;2023-05-07T14:21:49;2.27;;;2.07;;
2474;SDS011;1248;48.694;10.160;2023-05-07T14:24:16;3.67;;;2.53;;
2474;SDS011;1248;48.694;10.160;2023-05-07T14:26:44;2.23;;;1.77;;
2474;SDS011;1248;48.694;10.160;2023-05-07T14:29:11;3.83;;;2.30;;
2474;SDS011;1248;48.694;10.160;2023-05-07T14:31:41;3.80;;;2.20;;
2474;SDS011;1248;48.694;10.160;2023-05-07T14:34:08;2.53;;;1.70;;
2474;SDS011;1248;48.694;10.160;2023-05-07T14:36:35;3.10;;;2.00;;
2474;SDS011;1248;48.694;10.160;2023-05-07T14:39:03;2.97;;;1.90;;
2474;SDS011;1248;48.694;10.160;2023-05-07T14:41:30;2.70;;;1.70;;
2474;SDS011;1248;48.694;10.160;2023-05-07T14:44:00;3.17;;;2.30;;
2474;SDS011;1248;48.694;10.160;2023-05-07T14:46:29;4.23;;;2.17;;
2474;SDS011;1248;48.694;10.160;2023-05-07T14:48:56;3.50;;;2.50;;
2474;SDS011;1248;48.694;10.160;2023-05-07T14:51:24;2.53;;;2.00;;
2474;SDS011;1248;48.694;10.160;2023-05-07T14:53:51;3.07;;;2.27;;
2474;SDS011;1248;48.694;10.160;2023-05-07T14:56:18;2.43;;;2.07;;
2474;SDS011;1248;48.694;10.160;2023-05-07T14:58:46;2.60;;;1.80;;
2474;SDS011;1248;48.694;10.160;2023-05-07T15:01:14;5.03;;;2.50;;
2474;SDS011;1248;48.694;10.160;2023-05-07T15:03:41;5.27;;;2.50;;
2474;SDS011;1248;48.694;10.160;2023-05-07T15:06:08;3.00;;;2.13;;
2474;SDS011;1248;48.694;10.160;2023-05-07T15:08:36;2.73;;;2.10;;
2474;SDS011;1248;48.694;10.160;2023-05-07T15:11:03;3.40;;;2.30;;
2474;SDS011;1248;48.694;10.160;2023-05-07T15:13:30;3.80;;;2.50;;
2474;SDS011;1248;48.694;10.160;2023-05-07T15:15:57;3.20;;;2.40;;